sensor_id;sensor_type;location;lat;lon;timestamp;temperature;humidity
27647;DHT22;42229;51.230;6.240;2023-09-19T00:01:19;17.40;99.90
27647;DHT22;42229;51.230;6.240;2023-09-19T00:03:46;17.40;99.90
27647;DHT22;42229;51.230;6.240;2023-09-19T00:06:12;17.40;99.90
27647;DHT22;42229;51.230;6.240;2023-09-19T00:08:42;17.40;99.90
27647;DHT22;42229;51.230;6.240;2023-09-19T00:11:10;17.30;99.90
27647;DHT22;42229;51.230;6.240;2023-09-19T00:13:36;17.30;99.90
27647;DHT22;42229;51.230;6.240;2023-09-19T00:16:09;17.30;99.90
27647;DHT22;42229;51.230;6.240;2023-09-19T00:18:37;17.30;99.90
27647;DHT22;42229;51.230;6.240;2023-09-19T00:21:04;17.30;99.90
27647;DHT22;42229;51.230;6.240;2023-09-19T00:23:33;17.20;99.90
27647;DHT22;42229;51.230;6.240;2023-09-19T00:26:00;17.20;99.90
27647;DHT22;42229;51.230;6.240;2023-09-19T00:28:27;17.20;99.90
27647;DHT22;42229;51.230;6.240;2023-09-19T00:30:53;17.20;99.90
27647;DHT22;42229;51.230;6.240;2023-09-19T00:33:22;17.20;99.90
27647;DHT22;42229;51.230;6.240;2023-09-19T00:35:53;17.20;99.90
27647;DHT22;42229;51.230;6.240;2023-09-19T00:38:20;17.10;99.90
27647;DHT22;42229;51.230;6.240;2023-09-19T00:40:48;17.10;99.90
27647;DHT22;42229;51.230;6.240;2023-09-19T00:43:16;17.10;99.90
27647;DHT22;42229;51.230;6.240;2023-09-19T00:45:44;17.10;99.90
27647;DHT22;42229;51.230;6.240;2023-09-19T00:48:14;17.10;99.90
27647;DHT22;42229;51.230;6.240;2023-09-19T00:50:41;17.10;99.90
27647;DHT22;42229;51.230;6.240;2023-09-19T00:53:09;17.10;99.90
27647;DHT22;42229;51.230;6.240;2023-09-19T00:55:39;17.10;99.90
27647;DHT22;42229;51.230;6.240;2023-09-19T00:58:06;17.10;99.90
27647;DHT22;42229;51.230;6.240;2023-09-19T01:00:33;17.10;99.90
27647;DHT22;42229;51.230;6.240;2023-09-19T01:03:00;17.00;99.90
27647;DHT22;42229;51.230;6.240;2023-09-19T01:05:29;17.00;99.90
27647;DHT22;42229;51.230;6.240;2023-09-19T01:07:55;17.00;99.90
27647;DHT22;42229;51.230;6.240;2023-09-19T01:10:22;17.00;99.90
27647;DHT22;42229;51.230;6.240;2023-09-19T01:15:30;17.00;99.90
27647;DHT22;42229;51.230;6.240;2023-09-19T01:26:05;16.90;99.90
27647;DHT22;42229;51.230;6.240;2023-09-19T01:31:28;16.90;99.90
27647;DHT22;42229;51.230;6.240;2023-09-19T01:36:25;16.90;99.90
27647;DHT22;42229;51.230;6.240;2023-09-19T01:38:52;16.90;99.90
27647;DHT22;42229;51.230;6.240;2023-09-19T01:41:26;16.90;99.90
27647;DHT22;42229;51.230;6.240;2023-09-19T01:43:59;16.80;99.90
27647;DHT22;42229;51.230;6.240;2023-09-19T01:46:37;16.80;99.90
27647;DHT22;42229;51.230;6.240;2023-09-19T01:51:53;16.80;99.90
27647;DHT22;42229;51.230;6.240;2023-09-19T01:54:30;16.80;99.90
27647;DHT22;42229;51.230;6.240;2023-09-19T01:59:50;16.80;99.90
27647;DHT22;42229;51.230;6.240;2023-09-19T02:02:19;16.80;99.90
27647;DHT22;42229;51.230;6.240;2023-09-19T02:04:48;16.80;99.90
27647;DHT22;42229;51.230;6.240;2023-09-19T02:07:14;16.80;99.90
27647;DHT22;42229;51.230;6.240;2023-09-19T02:09:41;16.70;99.90
27647;DHT22;42229;51.230;6.240;2023-09-19T02:12:08;16.80;99.90
27647;DHT22;42229;51.230;6.240;2023-09-19T02:14:35;16.70;99.90
27647;DHT22;42229;51.230;6.240;2023-09-19T02:17:04;16.70;99.90
27647;DHT22;42229;51.230;6.240;2023-09-19T02:19:35;16.70;99.90
27647;DHT22;42229;51.230;6.240;2023-09-19T02:22:04;16.70;99.90
27647;DHT22;42229;51.230;6.240;2023-09-19T02:24:36;16.70;99.90
27647;DHT22;42229;51.230;6.240;2023-09-19T02:27:04;16.70;99.90
27647;DHT22;42229;51.230;6.240;2023-09-19T02:29:31;16.70;99.90
27647;DHT22;42229;51.230;6.240;2023-09-19T02:32:00;16.70;99.90
27647;DHT22;42229;51.230;6.240;2023-09-19T02:34:27;16.60;99.90
27647;DHT22;42229;51.230;6.240;2023-09-19T02:36:54;16.70;99.90
27647;DHT22;42229;51.230;6.240;2023-09-19T02:39:22;16.60;99.90
27647;DHT22;42229;51.230;6.240;2023-09-19T02:41:49;16.70;99.90
27647;DHT22;42229;51.230;6.240;2023-09-19T02:44:15;16.60;99.90
27647;DHT22;42229;51.230;6.240;2023-09-19T02:46:42;16.60;99.90
27647;DHT22;42229;51.230;6.240;2023-09-19T02:49:08;16.60;99.90
27647;DHT22;42229;51.230;6.240;2023-09-19T02:51:34;16.60;99.90
27647;DHT22;42229;51.230;6.240;2023-09-19T02:54:01;16.60;99.90
27647;DHT22;42229;51.230;6.240;2023-09-19T02:56:28;16.60;99.90
27647;DHT22;42229;51.230;6.240;2023-09-19T02:58:56;16.60;99.90
27647;DHT22;42229;51.230;6.240;2023-09-19T03:01:23;16.50;99.90
27647;DHT22;42229;51.230;6.240;2023-09-19T03:03:50;16.50;99.90
27647;DHT22;42229;51.230;6.240;2023-09-19T03:06:16;16.50;99.90
27647;DHT22;42229;51.230;6.240;2023-09-19T03:08:46;16.50;99.90
27647;DHT22;42229;51.230;6.240;2023-09-19T03:11:12;16.50;99.90
27647;DHT22;42229;51.230;6.240;2023-09-19T03:13:43;16.40;99.90
27647;DHT22;42229;51.230;6.240;2023-09-19T03:16:12;16.40;99.90
27647;DHT22;42229;51.230;6.240;2023-09-19T03:18:40;16.40;99.90
27647;DHT22;42229;51.230;6.240;2023-09-19T03:21:07;16.40;99.90
27647;DHT22;42229;51.230;6.240;2023-09-19T03:23:33;16.40;99.90
27647;DHT22;42229;51.230;6.240;2023-09-19T03:25:59;16.30;99.90
27647;DHT22;42229;51.230;6.240;2023-09-19T03:28:26;16.30;99.90
27647;DHT22;42229;51.230;6.240;2023-09-19T03:30:58;16.30;99.90
27647;DHT22;42229;51.230;6.240;2023-09-19T03:33:29;16.30;99.90
27647;DHT22;42229;51.230;6.240;2023-09-19T03:36:00;16.20;99.90
27647;DHT22;42229;51.230;6.240;2023-09-19T03:38:31;16.30;99.90
27647;DHT22;42229;51.230;6.240;2023-09-19T03:40:58;16.20;99.90
27647;DHT22;42229;51.230;6.240;2023-09-19T03:43:25;16.20;99.90
27647;DHT22;42229;51.230;6.240;2023-09-19T03:45:52;16.20;99.90
27647;DHT22;42229;51.230;6.240;2023-09-19T03:48:20;16.20;99.90
27647;DHT22;42229;51.230;6.240;2023-09-19T03:50:47;16.20;99.90
27647;DHT22;42229;51.230;6.240;2023-09-19T03:53:13;16.20;99.90
27647;DHT22;42229;51.230;6.240;2023-09-19T03:55:41;16.20;99.90
27647;DHT22;42229;51.230;6.240;2023-09-19T03:58:08;16.20;99.90
27647;DHT22;42229;51.230;6.240;2023-09-19T04:00:34;16.20;99.90
27647;DHT22;42229;51.230;6.240;2023-09-19T04:03:00;16.30;99.90
27647;DHT22;42229;51.230;6.240;2023-09-19T04:05:31;16.20;99.90
27647;DHT22;42229;51.230;6.240;2023-09-19T04:07:59;16.30;99.90
27647;DHT22;42229;51.230;6.240;2023-09-19T04:10:25;16.20;99.90
27647;DHT22;42229;51.230;6.240;2023-09-19T04:12:54;16.20;99.90
27647;DHT22;42229;51.230;6.240;2023-09-19T04:15:22;16.20;99.90
27647;DHT22;42229;51.230;6.240;2023-09-19T04:17:50;16.20;99.90
27647;DHT22;42229;51.230;6.240;2023-09-19T04:20:17;16.20;99.90
27647;DHT22;42229;51.230;6.240;2023-09-19T04:22:45;16.20;99.90
27647;DHT22;42229;51.230;6.240;2023-09-19T04:25:12;16.20;99.90
27647;DHT22;42229;51.230;6.240;2023-09-19T04:27:39;16.20;99.90
27647;DHT22;42229;51.230;6.240;2023-09-19T04:30:07;16.20;99.90
27647;DHT22;42229;51.230;6.240;2023-09-19T04:32:41;16.30;99.90
27647;DHT22;42229;51.230;6.240;2023-09-19T04:35:07;16.30;99.90
27647;DHT22;42229;51.230;6.240;2023-09-19T04:37:36;16.30;99.90
27647;DHT22;42229;51.230;6.240;2023-09-19T04:40:04;16.30;99.90
27647;DHT22;42229;51.230;6.240;2023-09-19T04:42:36;16.30;99.90
27647;DHT22;42229;51.230;6.240;2023-09-19T04:45:02;16.30;99.90
27647;DHT22;42229;51.230;6.240;2023-09-19T04:47:29;16.30;99.90
27647;DHT22;42229;51.230;6.240;2023-09-19T04:49:55;16.30;99.90
27647;DHT22;42229;51.230;6.240;2023-09-19T04:52:22;16.30;99.90
27647;DHT22;42229;51.230;6.240;2023-09-19T04:54:48;16.30;99.90
27647;DHT22;42229;51.230;6.240;2023-09-19T04:57:15;16.30;99.90
27647;DHT22;42229;51.230;6.240;2023-09-19T04:59:41;16.30;99.90
27647;DHT22;42229;51.230;6.240;2023-09-19T05:02:08;16.40;99.90
27647;DHT22;42229;51.230;6.240;2023-09-19T05:04:34;16.30;99.90
27647;DHT22;42229;51.230;6.240;2023-09-19T05:07:01;16.30;99.90
27647;DHT22;42229;51.230;6.240;2023-09-19T05:09:29;16.40;99.90
27647;DHT22;42229;51.230;6.240;2023-09-19T05:11:55;16.40;99.90
27647;DHT22;42229;51.230;6.240;2023-09-19T05:14:22;16.40;99.90
27647;DHT22;42229;51.230;6.240;2023-09-19T05:16:49;16.40;99.90
27647;DHT22;42229;51.230;6.240;2023-09-19T05:19:15;16.40;99.90
27647;DHT22;42229;51.230;6.240;2023-09-19T05:21:41;16.40;99.90
27647;DHT22;42229;51.230;6.240;2023-09-19T05:24:08;16.50;99.90
27647;DHT22;42229;51.230;6.240;2023-09-19T05:26:34;16.50;99.90
27647;DHT22;42229;51.230;6.240;2023-09-19T05:29:00;16.60;99.90
27647;DHT22;42229;51.230;6.240;2023-09-19T05:31:29;16.60;99.90
27647;DHT22;42229;51.230;6.240;2023-09-19T05:33:56;16.60;99.90
27647;DHT22;42229;51.230;6.240;2023-09-19T05:36:22;16.70;99.90
27647;DHT22;42229;51.230;6.240;2023-09-19T05:38:49;16.70;99.90
27647;DHT22;42229;51.230;6.240;2023-09-19T05:41:17;16.70;99.90
27647;DHT22;42229;51.230;6.240;2023-09-19T05:43:43;16.80;99.90
27647;DHT22;42229;51.230;6.240;2023-09-19T05:46:10;16.80;99.90
27647;DHT22;42229;51.230;6.240;2023-09-19T05:48:36;16.80;99.90
27647;DHT22;42229;51.230;6.240;2023-09-19T05:51:05;16.80;99.90
27647;DHT22;42229;51.230;6.240;2023-09-19T05:53:31;16.80;99.90
27647;DHT22;42229;51.230;6.240;2023-09-19T05:55:57;16.80;99.90
27647;DHT22;42229;51.230;6.240;2023-09-19T05:58:26;16.80;99.90
27647;DHT22;42229;51.230;6.240;2023-09-19T06:00:53;16.80;99.90
27647;DHT22;42229;51.230;6.240;2023-09-19T06:03:19;16.80;99.90
27647;DHT22;42229;51.230;6.240;2023-09-19T06:05:46;16.80;99.90
27647;DHT22;42229;51.230;6.240;2023-09-19T06:08:15;16.80;99.90
27647;DHT22;42229;51.230;6.240;2023-09-19T06:10:41;16.80;99.90
27647;DHT22;42229;51.230;6.240;2023-09-19T06:13:07;16.90;99.90
27647;DHT22;42229;51.230;6.240;2023-09-19T06:15:35;16.80;99.90
27647;DHT22;42229;51.230;6.240;2023-09-19T06:18:02;16.80;99.90
27647;DHT22;42229;51.230;6.240;2023-09-19T06:20:30;16.80;99.90
27647;DHT22;42229;51.230;6.240;2023-09-19T06:22:57;16.80;99.90
27647;DHT22;42229;51.230;6.240;2023-09-19T06:25:23;16.80;99.90
27647;DHT22;42229;51.230;6.240;2023-09-19T06:27:50;16.80;99.90
27647;DHT22;42229;51.230;6.240;2023-09-19T06:30:21;16.90;99.90
27647;DHT22;42229;51.230;6.240;2023-09-19T06:32:48;16.90;99.90
27647;DHT22;42229;51.230;6.240;2023-09-19T06:35:15;16.90;99.90
27647;DHT22;42229;51.230;6.240;2023-09-19T06:37:42;16.90;99.90
27647;DHT22;42229;51.230;6.240;2023-09-19T06:40:09;16.90;99.90
27647;DHT22;42229;51.230;6.240;2023-09-19T06:42:43;16.90;99.90
27647;DHT22;42229;51.230;6.240;2023-09-19T06:45:13;16.90;99.90
27647;DHT22;42229;51.230;6.240;2023-09-19T06:47:50;17.00;99.90
27647;DHT22;42229;51.230;6.240;2023-09-19T06:50:17;17.00;99.90
27647;DHT22;42229;51.230;6.240;2023-09-19T06:52:45;17.00;99.90
27647;DHT22;42229;51.230;6.240;2023-09-19T06:55:16;17.00;99.90
27647;DHT22;42229;51.230;6.240;2023-09-19T06:57:43;17.00;99.90
27647;DHT22;42229;51.230;6.240;2023-09-19T07:00:10;17.00;99.90
27647;DHT22;42229;51.230;6.240;2023-09-19T07:02:54;17.10;99.90
27647;DHT22;42229;51.230;6.240;2023-09-19T07:05:20;17.10;99.90
27647;DHT22;42229;51.230;6.240;2023-09-19T07:07:47;17.10;99.90
27647;DHT22;42229;51.230;6.240;2023-09-19T07:10:13;17.20;99.90
27647;DHT22;42229;51.230;6.240;2023-09-19T07:12:40;17.20;99.90
27647;DHT22;42229;51.230;6.240;2023-09-19T07:15:08;17.20;99.90
27647;DHT22;42229;51.230;6.240;2023-09-19T07:17:34;17.30;99.90
27647;DHT22;42229;51.230;6.240;2023-09-19T07:20:00;17.30;99.90
27647;DHT22;42229;51.230;6.240;2023-09-19T07:22:27;17.30;99.90
27647;DHT22;42229;51.230;6.240;2023-09-19T07:24:53;17.30;99.90
27647;DHT22;42229;51.230;6.240;2023-09-19T07:27:19;17.40;99.90
27647;DHT22;42229;51.230;6.240;2023-09-19T07:29:45;17.40;99.90
27647;DHT22;42229;51.230;6.240;2023-09-19T07:32:12;17.50;99.90
27647;DHT22;42229;51.230;6.240;2023-09-19T07:34:39;17.50;99.90
27647;DHT22;42229;51.230;6.240;2023-09-19T07:37:06;17.50;99.90
27647;DHT22;42229;51.230;6.240;2023-09-19T07:39:33;17.50;99.90
27647;DHT22;42229;51.230;6.240;2023-09-19T07:42:00;17.60;99.90
27647;DHT22;42229;51.230;6.240;2023-09-19T07:44:26;17.70;99.90
27647;DHT22;42229;51.230;6.240;2023-09-19T07:46:52;17.70;99.90
27647;DHT22;42229;51.230;6.240;2023-09-19T07:49:19;17.80;99.90
27647;DHT22;42229;51.230;6.240;2023-09-19T07:51:45;17.80;99.90
27647;DHT22;42229;51.230;6.240;2023-09-19T07:54:12;17.80;99.90
27647;DHT22;42229;51.230;6.240;2023-09-19T07:56:38;17.90;99.90
27647;DHT22;42229;51.230;6.240;2023-09-19T07:59:05;17.90;99.90
27647;DHT22;42229;51.230;6.240;2023-09-19T08:01:31;18.00;99.90
27647;DHT22;42229;51.230;6.240;2023-09-19T08:03:58;18.10;99.90
27647;DHT22;42229;51.230;6.240;2023-09-19T08:06:25;18.10;99.90
27647;DHT22;42229;51.230;6.240;2023-09-19T08:08:56;18.20;99.90
27647;DHT22;42229;51.230;6.240;2023-09-19T08:11:22;18.20;99.90
27647;DHT22;42229;51.230;6.240;2023-09-19T08:13:50;18.30;99.90
27647;DHT22;42229;51.230;6.240;2023-09-19T08:16:16;18.30;99.90
27647;DHT22;42229;51.230;6.240;2023-09-19T08:18:47;18.40;99.90
27647;DHT22;42229;51.230;6.240;2023-09-19T08:21:13;18.40;99.90
27647;DHT22;42229;51.230;6.240;2023-09-19T08:23:41;18.50;99.90
27647;DHT22;42229;51.230;6.240;2023-09-19T08:26:07;18.50;99.90
27647;DHT22;42229;51.230;6.240;2023-09-19T08:28:34;18.60;99.90
27647;DHT22;42229;51.230;6.240;2023-09-19T08:31:01;18.60;99.90
27647;DHT22;42229;51.230;6.240;2023-09-19T08:33:34;18.70;99.90
27647;DHT22;42229;51.230;6.240;2023-09-19T08:36:02;18.70;99.90
27647;DHT22;42229;51.230;6.240;2023-09-19T08:38:33;18.70;99.90
27647;DHT22;42229;51.230;6.240;2023-09-19T08:41:01;18.80;99.90
27647;DHT22;42229;51.230;6.240;2023-09-19T08:43:31;18.80;99.90
27647;DHT22;42229;51.230;6.240;2023-09-19T08:46:07;18.90;99.90
27647;DHT22;42229;51.230;6.240;2023-09-19T08:48:39;18.90;99.90
27647;DHT22;42229;51.230;6.240;2023-09-19T08:53:50;19.00;99.90
27647;DHT22;42229;51.230;6.240;2023-09-19T08:56:18;19.10;99.90
27647;DHT22;42229;51.230;6.240;2023-09-19T08:59:04;19.00;99.90
27647;DHT22;42229;51.230;6.240;2023-09-19T09:01:33;19.10;99.90
27647;DHT22;42229;51.230;6.240;2023-09-19T09:04:00;19.10;99.90
27647;DHT22;42229;51.230;6.240;2023-09-19T09:06:27;19.10;99.90
27647;DHT22;42229;51.230;6.240;2023-09-19T09:08:54;19.10;99.90
27647;DHT22;42229;51.230;6.240;2023-09-19T09:11:20;19.20;99.90
27647;DHT22;42229;51.230;6.240;2023-09-19T09:13:47;19.20;99.90
27647;DHT22;42229;51.230;6.240;2023-09-19T09:16:14;19.30;99.90
27647;DHT22;42229;51.230;6.240;2023-09-19T09:18:44;19.40;99.90
27647;DHT22;42229;51.230;6.240;2023-09-19T09:21:11;19.40;99.90
27647;DHT22;42229;51.230;6.240;2023-09-19T09:23:39;19.40;99.90
27647;DHT22;42229;51.230;6.240;2023-09-19T09:26:05;19.40;99.90
27647;DHT22;42229;51.230;6.240;2023-09-19T09:28:33;19.40;99.90
27647;DHT22;42229;51.230;6.240;2023-09-19T09:31:02;19.40;99.90
27647;DHT22;42229;51.230;6.240;2023-09-19T09:33:35;19.50;99.90
27647;DHT22;42229;51.230;6.240;2023-09-19T09:36:02;19.50;99.90
27647;DHT22;42229;51.230;6.240;2023-09-19T09:38:30;19.60;99.90
27647;DHT22;42229;51.230;6.240;2023-09-19T09:41:09;19.70;99.90
27647;DHT22;42229;51.230;6.240;2023-09-19T09:43:37;19.80;99.90
27647;DHT22;42229;51.230;6.240;2023-09-19T09:46:16;19.80;99.90
27647;DHT22;42229;51.230;6.240;2023-09-19T09:51:40;19.90;99.90
27647;DHT22;42229;51.230;6.240;2023-09-19T09:54:12;20.00;99.90
27647;DHT22;42229;51.230;6.240;2023-09-19T10:02:31;20.00;99.90
27647;DHT22;42229;51.230;6.240;2023-09-19T10:05:13;20.00;99.90
27647;DHT22;42229;51.230;6.240;2023-09-19T10:07:49;20.00;99.90
27647;DHT22;42229;51.230;6.240;2023-09-19T10:13:12;20.00;99.90
27647;DHT22;42229;51.230;6.240;2023-09-19T10:15:44;20.00;99.90
27647;DHT22;42229;51.230;6.240;2023-09-19T10:18:20;20.00;99.90
27647;DHT22;42229;51.230;6.240;2023-09-19T10:20:47;20.10;99.90
27647;DHT22;42229;51.230;6.240;2023-09-19T10:23:16;20.20;99.90
27647;DHT22;42229;51.230;6.240;2023-09-19T10:25:48;20.20;99.90
27647;DHT22;42229;51.230;6.240;2023-09-19T10:28:16;20.40;99.90
27647;DHT22;42229;51.230;6.240;2023-09-19T10:30:48;20.50;99.90
27647;DHT22;42229;51.230;6.240;2023-09-19T10:33:16;20.50;99.90
27647;DHT22;42229;51.230;6.240;2023-09-19T10:35:44;20.50;99.90
27647;DHT22;42229;51.230;6.240;2023-09-19T10:38:12;20.60;99.90
27647;DHT22;42229;51.230;6.240;2023-09-19T10:40:40;20.60;99.90
27647;DHT22;42229;51.230;6.240;2023-09-19T10:43:13;20.70;99.90
27647;DHT22;42229;51.230;6.240;2023-09-19T10:45:45;20.70;99.90
27647;DHT22;42229;51.230;6.240;2023-09-19T10:48:15;20.80;99.90
27647;DHT22;42229;51.230;6.240;2023-09-19T10:53:27;21.00;99.90
27647;DHT22;42229;51.230;6.240;2023-09-19T10:55:58;21.20;99.90
27647;DHT22;42229;51.230;6.240;2023-09-19T10:58:29;21.20;99.90
27647;DHT22;42229;51.230;6.240;2023-09-19T11:01:00;21.30;99.90
27647;DHT22;42229;51.230;6.240;2023-09-19T11:03:31;21.30;99.90
27647;DHT22;42229;51.230;6.240;2023-09-19T11:14:50;21.40;99.50
27647;DHT22;42229;51.230;6.240;2023-09-19T11:30:48;21.80;99.10
27647;DHT22;42229;51.230;6.240;2023-09-19T11:33:16;22.00;99.60
27647;DHT22;42229;51.230;6.240;2023-09-19T11:36:07;22.10;98.50
27647;DHT22;42229;51.230;6.240;2023-09-19T11:43:47;22.30;97.10
27647;DHT22;42229;51.230;6.240;2023-09-19T11:46:24;22.40;97.80
27647;DHT22;42229;51.230;6.240;2023-09-19T11:48:51;22.40;97.30
27647;DHT22;42229;51.230;6.240;2023-09-19T11:51:18;22.50;97.80
27647;DHT22;42229;51.230;6.240;2023-09-19T11:53:48;22.50;97.10
27647;DHT22;42229;51.230;6.240;2023-09-19T11:56:21;22.60;97.90
27647;DHT22;42229;51.230;6.240;2023-09-19T11:58:50;22.70;97.80
27647;DHT22;42229;51.230;6.240;2023-09-19T12:01:21;22.80;98.40
27647;DHT22;42229;51.230;6.240;2023-09-19T12:03:59;22.90;97.50
27647;DHT22;42229;51.230;6.240;2023-09-19T12:06:28;23.00;95.70
27647;DHT22;42229;51.230;6.240;2023-09-19T12:09:02;23.20;98.90
27647;DHT22;42229;51.230;6.240;2023-09-19T12:11:32;23.40;97.30
27647;DHT22;42229;51.230;6.240;2023-09-19T12:13:59;23.50;98.90
27647;DHT22;42229;51.230;6.240;2023-09-19T12:16:26;23.60;96.80
27647;DHT22;42229;51.230;6.240;2023-09-19T12:18:56;23.70;97.20
27647;DHT22;42229;51.230;6.240;2023-09-19T12:21:24;23.60;96.00
27647;DHT22;42229;51.230;6.240;2023-09-19T12:23:56;23.80;96.30
27647;DHT22;42229;51.230;6.240;2023-09-19T12:26:28;23.90;95.10
27647;DHT22;42229;51.230;6.240;2023-09-19T12:28:55;24.00;94.90
27647;DHT22;42229;51.230;6.240;2023-09-19T12:31:21;24.20;94.80
27647;DHT22;42229;51.230;6.240;2023-09-19T12:33:53;24.30;97.20
27647;DHT22;42229;51.230;6.240;2023-09-19T12:36:21;24.50;94.70
27647;DHT22;42229;51.230;6.240;2023-09-19T12:38:55;24.70;94.90
27647;DHT22;42229;51.230;6.240;2023-09-19T12:41:21;24.80;92.80
27647;DHT22;42229;51.230;6.240;2023-09-19T12:43:48;24.80;94.60
27647;DHT22;42229;51.230;6.240;2023-09-19T12:46:14;24.90;95.30
27647;DHT22;42229;51.230;6.240;2023-09-19T12:48:41;25.00;93.70
27647;DHT22;42229;51.230;6.240;2023-09-19T12:51:10;25.10;94.50
27647;DHT22;42229;51.230;6.240;2023-09-19T12:53:42;25.10;93.90
27647;DHT22;42229;51.230;6.240;2023-09-19T12:56:09;25.00;95.20
27647;DHT22;42229;51.230;6.240;2023-09-19T12:58:49;24.90;95.10
27647;DHT22;42229;51.230;6.240;2023-09-19T13:01:20;24.90;94.80
27647;DHT22;42229;51.230;6.240;2023-09-19T13:03:50;24.90;96.90
27647;DHT22;42229;51.230;6.240;2023-09-19T13:06:53;24.80;94.60
27647;DHT22;42229;51.230;6.240;2023-09-19T13:09:21;24.80;96.30
27647;DHT22;42229;51.230;6.240;2023-09-19T13:11:50;24.80;93.60
27647;DHT22;42229;51.230;6.240;2023-09-19T13:17:03;24.60;93.50
27647;DHT22;42229;51.230;6.240;2023-09-19T13:25:09;24.10;95.10
27647;DHT22;42229;51.230;6.240;2023-09-19T13:27:44;23.90;95.60
27647;DHT22;42229;51.230;6.240;2023-09-19T13:30:12;23.80;94.90
27647;DHT22;42229;51.230;6.240;2023-09-19T13:32:38;23.60;96.10
27647;DHT22;42229;51.230;6.240;2023-09-19T13:35:06;23.50;96.10
27647;DHT22;42229;51.230;6.240;2023-09-19T13:37:38;23.50;95.40
27647;DHT22;42229;51.230;6.240;2023-09-19T13:40:07;23.30;95.00
27647;DHT22;42229;51.230;6.240;2023-09-19T13:42:34;23.20;95.30
27647;DHT22;42229;51.230;6.240;2023-09-19T13:45:02;23.20;94.90
27647;DHT22;42229;51.230;6.240;2023-09-19T13:47:30;23.10;95.90
27647;DHT22;42229;51.230;6.240;2023-09-19T13:49:57;23.10;95.50
27647;DHT22;42229;51.230;6.240;2023-09-19T13:52:23;23.00;95.00
27647;DHT22;42229;51.230;6.240;2023-09-19T13:54:52;22.80;95.60
27647;DHT22;42229;51.230;6.240;2023-09-19T13:57:22;22.70;96.20
27647;DHT22;42229;51.230;6.240;2023-09-19T13:59:49;22.70;97.00
27647;DHT22;42229;51.230;6.240;2023-09-19T14:02:17;22.70;96.60
27647;DHT22;42229;51.230;6.240;2023-09-19T14:04:49;22.80;97.10
27647;DHT22;42229;51.230;6.240;2023-09-19T14:07:15;22.90;97.50
27647;DHT22;42229;51.230;6.240;2023-09-19T14:09:44;22.80;96.20
27647;DHT22;42229;51.230;6.240;2023-09-19T14:12:11;22.90;96.80
27647;DHT22;42229;51.230;6.240;2023-09-19T14:14:37;22.80;96.40
27647;DHT22;42229;51.230;6.240;2023-09-19T14:17:04;22.80;96.70
27647;DHT22;42229;51.230;6.240;2023-09-19T14:19:30;22.80;96.20
27647;DHT22;42229;51.230;6.240;2023-09-19T14:21:56;22.70;96.10
27647;DHT22;42229;51.230;6.240;2023-09-19T14:24:23;22.70;96.30
27647;DHT22;42229;51.230;6.240;2023-09-19T14:26:49;22.70;96.50
27647;DHT22;42229;51.230;6.240;2023-09-19T14:29:16;22.70;97.30
27647;DHT22;42229;51.230;6.240;2023-09-19T14:31:42;22.70;96.40
27647;DHT22;42229;51.230;6.240;2023-09-19T14:34:09;22.70;97.10
27647;DHT22;42229;51.230;6.240;2023-09-19T14:36:36;22.60;96.60
27647;DHT22;42229;51.230;6.240;2023-09-19T14:39:04;22.60;96.50
27647;DHT22;42229;51.230;6.240;2023-09-19T14:41:31;22.50;97.00
27647;DHT22;42229;51.230;6.240;2023-09-19T14:43:57;22.40;97.40
27647;DHT22;42229;51.230;6.240;2023-09-19T14:46:24;22.40;97.00
27647;DHT22;42229;51.230;6.240;2023-09-19T14:48:51;22.30;96.50
27647;DHT22;42229;51.230;6.240;2023-09-19T14:51:17;22.30;97.10
27647;DHT22;42229;51.230;6.240;2023-09-19T14:53:45;22.20;97.40
27647;DHT22;42229;51.230;6.240;2023-09-19T14:56:12;22.20;96.90
27647;DHT22;42229;51.230;6.240;2023-09-19T14:58:43;22.10;97.20
27647;DHT22;42229;51.230;6.240;2023-09-19T15:01:10;22.00;97.50
27647;DHT22;42229;51.230;6.240;2023-09-19T15:03:38;22.00;96.70
27647;DHT22;42229;51.230;6.240;2023-09-19T15:06:06;22.00;97.70
27647;DHT22;42229;51.230;6.240;2023-09-19T15:08:34;21.90;97.20
27647;DHT22;42229;51.230;6.240;2023-09-19T15:11:01;21.90;96.60
27647;DHT22;42229;51.230;6.240;2023-09-19T15:13:31;21.90;98.00
27647;DHT22;42229;51.230;6.240;2023-09-19T15:15:58;21.90;97.20
27647;DHT22;42229;51.230;6.240;2023-09-19T15:18:28;21.90;97.80
27647;DHT22;42229;51.230;6.240;2023-09-19T15:20:56;21.80;97.10
27647;DHT22;42229;51.230;6.240;2023-09-19T15:23:26;21.80;97.60
27647;DHT22;42229;51.230;6.240;2023-09-19T15:25:52;21.80;97.20
27647;DHT22;42229;51.230;6.240;2023-09-19T15:28:19;21.80;98.00
27647;DHT22;42229;51.230;6.240;2023-09-19T15:30:49;21.80;97.50
27647;DHT22;42229;51.230;6.240;2023-09-19T15:33:15;22.00;98.10
27647;DHT22;42229;51.230;6.240;2023-09-19T15:35:43;22.10;98.60
27647;DHT22;42229;51.230;6.240;2023-09-19T15:38:09;22.30;97.60
27647;DHT22;42229;51.230;6.240;2023-09-19T15:40:45;22.40;97.40
27647;DHT22;42229;51.230;6.240;2023-09-19T15:43:12;22.50;97.60
27647;DHT22;42229;51.230;6.240;2023-09-19T15:45:38;22.50;97.20
27647;DHT22;42229;51.230;6.240;2023-09-19T15:48:05;22.70;97.20
27647;DHT22;42229;51.230;6.240;2023-09-19T15:50:31;22.80;97.90
27647;DHT22;42229;51.230;6.240;2023-09-19T15:52:58;23.00;96.90
27647;DHT22;42229;51.230;6.240;2023-09-19T15:55:24;23.10;97.30
27647;DHT22;42229;51.230;6.240;2023-09-19T15:57:51;23.20;97.40
27647;DHT22;42229;51.230;6.240;2023-09-19T16:00:19;23.20;97.30
27647;DHT22;42229;51.230;6.240;2023-09-19T16:02:46;23.20;97.20
27647;DHT22;42229;51.230;6.240;2023-09-19T16:05:16;23.30;96.90
27647;DHT22;42229;51.230;6.240;2023-09-19T16:07:42;23.30;97.60
27647;DHT22;42229;51.230;6.240;2023-09-19T16:10:09;23.30;97.40
27647;DHT22;42229;51.230;6.240;2023-09-19T16:12:36;23.30;97.00
27647;DHT22;42229;51.230;6.240;2023-09-19T16:15:03;23.20;96.30
27647;DHT22;42229;51.230;6.240;2023-09-19T16:17:29;23.20;95.90
27647;DHT22;42229;51.230;6.240;2023-09-19T16:19:56;23.10;96.00
27647;DHT22;42229;51.230;6.240;2023-09-19T16:22:22;23.10;96.70
27647;DHT22;42229;51.230;6.240;2023-09-19T16:24:48;23.10;97.00
27647;DHT22;42229;51.230;6.240;2023-09-19T16:27:14;23.10;98.10
27647;DHT22;42229;51.230;6.240;2023-09-19T16:29:41;23.00;96.20
27647;DHT22;42229;51.230;6.240;2023-09-19T16:32:07;23.00;96.90
27647;DHT22;42229;51.230;6.240;2023-09-19T16:34:33;22.90;97.60
27647;DHT22;42229;51.230;6.240;2023-09-19T16:37:00;22.80;97.60
27647;DHT22;42229;51.230;6.240;2023-09-19T16:39:26;22.70;97.40
27647;DHT22;42229;51.230;6.240;2023-09-19T16:41:52;22.60;97.20
27647;DHT22;42229;51.230;6.240;2023-09-19T16:44:19;22.40;97.70
27647;DHT22;42229;51.230;6.240;2023-09-19T16:46:46;22.30;96.80
27647;DHT22;42229;51.230;6.240;2023-09-19T16:49:13;22.20;97.50
27647;DHT22;42229;51.230;6.240;2023-09-19T16:51:39;22.10;97.20